createdAt,value
2023-05-12T00:00:13.526Z,47.20
2023-05-12T00:02:40.617Z,47.55
2023-05-12T00:05:08.623Z,47.70
2023-05-12T00:07:35.621Z,46.88
2023-05-12T00:10:02.578Z,46.88
2023-05-12T00:12:29.562Z,49.10
2023-05-12T00:14:56.586Z,47.88
2023-05-12T00:17:24.880Z,48.70
2023-05-12T00:19:51.856Z,47.72
2023-05-12T00:22:18.841Z,48.67
2023-05-12T00:24:45.989Z,49.78
2023-05-12T00:27:12.956Z,48.42
2023-05-12T00:29:39.998Z,50.15
2023-05-12T00:32:07.196Z,50.67
2023-05-12T00:34:35.490Z,50.47
2023-05-12T00:37:02.462Z,50.10
2023-05-12T00:39:29.447Z,49.67
2023-05-12T00:41:57.085Z,51.25
2023-05-12T00:44:24.004Z,49.58
2023-05-12T00:46:51.430Z,51.42
2023-05-12T00:49:19.057Z,51.45
2023-05-12T00:51:47.395Z,51.90
2023-05-12T00:54:14.588Z,50.97
2023-05-12T00:56:42.085Z,50.58
2023-05-12T00:59:09.218Z,52.45
2023-05-12T01:01:36.622Z,51.13
2023-05-12T01:04:04.293Z,52.25
2023-05-12T01:06:42.694Z,52.70
2023-05-12T01:09:11.579Z,52.90
2023-05-12T01:11:38.661Z,53.25
2023-05-12T01:14:05.605Z,55.67
2023-05-12T01:16:39.334Z,53.55
2023-05-12T01:19:08.296Z,53.58
2023-05-12T01:21:35.269Z,54.28
2023-05-12T01:24:08.513Z,54.45
2023-05-12T01:26:37.137Z,53.42
2023-05-12T01:29:04.912Z,53.97
2023-05-12T01:31:33.037Z,53.03
2023-05-12T01:34:00.012Z,54.33
2023-05-12T01:36:26.958Z,55.30
2023-05-12T01:38:54.140Z,56.30
2023-05-12T01:41:21.239Z,14.82
2023-05-12T01:43:49.623Z,54.50
2023-05-12T01:46:16.535Z,57.80
2023-05-12T01:48:43.525Z,57.08
2023-05-12T01:51:10.593Z,58.65
2023-05-12T01:53:37.566Z,58.70
2023-05-12T01:56:04.801Z,57.50
2023-05-12T01:58:31.682Z,57.42
2023-05-12T02:00:59.934Z,58.78
2023-05-12T02:03:26.940Z,59.72
2023-05-12T02:05:53.982Z,59.83
2023-05-12T02:08:20.924Z,59.25
2023-05-12T02:10:47.814Z,57.08
2023-05-12T02:13:14.867Z,58.15
2023-05-12T02:15:41.776Z,56.38
2023-05-12T02:18:10.063Z,56.65
2023-05-12T02:20:37.321Z,55.55
2023-05-12T02:23:04.266Z,53.38
2023-05-12T02:25:31.178Z,54.80
2023-05-12T02:27:58.233Z,53.08
2023-05-12T02:30:25.164Z,51.33
2023-05-12T02:32:52.163Z,49.17
2023-05-12T02:35:20.533Z,51.00
2023-05-12T02:37:47.435Z,49.45
2023-05-12T02:40:14.792Z,50.10
2023-05-12T02:42:41.789Z,48.95
2023-05-12T02:45:09.781Z,49.80
2023-05-12T02:47:36.758Z,48.42
2023-05-12T02:50:04.095Z,45.50
2023-05-12T02:52:32.632Z,47.63
2023-05-12T02:54:59.522Z,46.42
2023-05-12T02:57:26.486Z,46.25
2023-05-12T02:59:53.371Z,45.88
2023-05-12T03:02:20.372Z,45.58
2023-05-12T03:04:47.327Z,45.63
2023-05-12T03:07:14.258Z,46.00
2023-05-12T03:09:42.634Z,46.03
2023-05-12T03:12:10.006Z,46.05
2023-05-12T03:14:36.908Z,47.13
2023-05-12T03:17:04.027Z,46.65
2023-05-12T03:19:30.958Z,46.95
2023-05-12T03:21:59.497Z,46.17
2023-05-12T03:24:26.436Z,47.22
2023-05-12T03:26:55.029Z,45.35
2023-05-12T03:29:22.179Z,46.47
2023-05-12T03:31:49.092Z,47.10
2023-05-12T03:34:16.098Z,47.50
2023-05-12T03:36:42.995Z,47.17
2023-05-12T03:39:09.913Z,48.80
2023-05-12T03:41:37.070Z,48.42
2023-05-12T03:44:05.776Z,47.50
2023-05-12T03:46:32.744Z,47.88
2023-05-12T03:48:59.681Z,48.55
2023-05-12T03:51:26.652Z,47.30
2023-05-12T03:53:53.588Z,46.50
2023-05-12T03:56:20.488Z,48.35
2023-05-12T03:58:47.434Z,47.78
2023-05-12T04:01:15.769Z,46.03
2023-05-12T04:03:42.801Z,39.25
2023-05-12T04:06:09.909Z,32.50
2023-05-12T04:08:37.190Z,32.00
2023-05-12T04:11:05.160Z,29.70
2023-05-12T04:13:32.090Z,27.33
2023-05-12T04:16:00.250Z,24.25
2023-05-12T04:18:28.922Z,23.55
2023-05-12T04:20:56.036Z,22.10
2023-05-12T04:23:23.077Z,21.17
2023-05-12T04:25:50.085Z,22.25
2023-05-12T04:28:16.981Z,20.88
2023-05-12T04:30:43.909Z,20.30
2023-05-12T04:33:10.981Z,19.95
2023-05-12T04:35:39.436Z,21.02
2023-05-12T04:38:06.372Z,22.70
2023-05-12T04:40:34.849Z,22.65
2023-05-12T04:43:02.226Z,22.48
2023-05-12T04:45:29.103Z,26.73
2023-05-12T04:47:56.111Z,28.75
2023-05-12T04:50:23.067Z,28.42
2023-05-12T04:52:51.387Z,29.75
2023-05-12T04:55:18.513Z,28.85
2023-05-12T04:57:45.695Z,29.88
2023-05-12T05:00:13.422Z,30.38
2023-05-12T05:02:40.496Z,28.20
2023-05-12T05:05:09.400Z,26.73
2023-05-12T05:07:42.052Z,24.10
2023-05-12T05:10:13.298Z,21.08
2023-05-12T05:12:46.495Z,20.25
2023-05-12T05:18:06.891Z,15.77
2023-05-12T05:20:42.887Z,16.38
2023-05-12T05:23:27.400Z,16.13
2023-05-12T05:25:58.091Z,15.63
2023-05-12T05:28:29.081Z,15.07
2023-05-12T05:30:56.069Z,14.27
2023-05-12T05:33:23.261Z,14.73
2023-05-12T05:35:50.339Z,14.07
2023-05-12T05:38:17.458Z,12.63
2023-05-12T05:40:52.943Z,12.27
2023-05-12T05:43:22.374Z,14.88
2023-05-12T05:45:49.997Z,13.85
2023-05-12T05:48:17.179Z,13.73
2023-05-12T05:50:44.482Z,13.77
2023-05-12T05:53:11.485Z,14.40
2023-05-12T05:55:40.247Z,13.40
2023-05-12T05:58:11.874Z,13.75
2023-05-12T06:00:45.332Z,14.32
2023-05-12T06:03:13.272Z,13.95
2023-05-12T06:05:46.498Z,13.38
2023-05-12T06:08:19.260Z,14.52
2023-05-12T06:10:49.869Z,13.30
2023-05-12T06:13:34.364Z,13.88
2023-05-12T06:16:13.113Z,13.67
2023-05-12T06:18:53.963Z,13.73
2023-05-12T06:21:21.290Z,12.95
2023-05-12T06:23:50.354Z,13.98
2023-05-12T06:26:17.803Z,13.88
2023-05-12T06:29:18.358Z,13.25
2023-05-12T06:31:54.899Z,13.68
2023-05-12T06:34:27.018Z,13.45
2023-05-12T06:36:55.184Z,13.52
2023-05-12T06:39:48.569Z,13.77
2023-05-12T06:49:44.944Z,12.10
2023-05-12T06:52:13.957Z,12.20
2023-05-12T06:55:03.993Z,12.90
2023-05-12T06:57:40.865Z,12.70
2023-05-12T07:00:59.684Z,12.00
2023-05-12T07:07:18.971Z,9.95
2023-05-12T07:11:12.940Z,8.40
2023-05-12T07:13:43.596Z,8.35
2023-05-12T07:22:39.124Z,6.25
2023-05-12T07:28:54.382Z,5.65
2023-05-12T07:31:24.519Z,4.97
2023-05-12T07:33:55.900Z,5.32
2023-05-12T07:36:23.408Z,4.40
2023-05-12T07:38:50.880Z,4.72
2023-05-12T07:41:18.016Z,4.70
2023-05-12T07:44:09.788Z,4.78
2023-05-12T07:47:03.479Z,5.40
2023-05-12T07:49:30.699Z,4.40
2023-05-12T07:55:10.121Z,4.95
2023-05-12T07:57:55.386Z,4.28
2023-05-12T08:03:35.126Z,4.90
2023-05-12T08:06:04.416Z,4.95
2023-05-12T08:08:43.275Z,4.88
2023-05-12T08:11:10.898Z,5.25
2023-05-12T08:13:38.303Z,4.78
2023-05-12T08:16:57.877Z,4.75
2023-05-12T08:22:13.900Z,4.53
2023-05-12T08:24:44.882Z,4.63
2023-05-12T08:27:12.421Z,4.43
2023-05-12T08:29:39.612Z,4.97
2023-05-12T08:32:08.047Z,5.03
2023-05-12T08:34:42.437Z,5.13
2023-05-12T08:37:09.671Z,4.35
2023-05-12T08:39:37.342Z,4.55
2023-05-12T08:45:10.948Z,4.75
2023-05-12T08:47:38.540Z,4.72
2023-05-12T08:50:09.181Z,4.10
2023-05-12T08:52:36.665Z,4.40
2023-05-12T08:55:04.950Z,3.88
2023-05-12T08:57:32.292Z,3.88
2023-05-12T08:59:59.478Z,3.88
2023-05-12T09:02:35.217Z,3.28
2023-05-12T09:05:13.427Z,3.90
2023-05-12T09:07:43.430Z,3.83
2023-05-12T09:10:25.998Z,4.03
2023-05-12T09:13:04.591Z,5.15
2023-05-12T09:15:35.863Z,4.53
2023-05-12T09:18:03.107Z,4.22
2023-05-12T09:20:32.222Z,4.22
2023-05-12T09:22:59.519Z,3.40
2023-05-12T09:25:26.560Z,4.35
2023-05-12T09:27:55.581Z,4.00
2023-05-12T09:30:30.703Z,4.20
2023-05-12T09:33:06.531Z,3.75
2023-05-12T09:35:38.513Z,3.97
2023-05-12T09:38:09.434Z,3.90
2023-05-12T09:40:36.673Z,4.50
2023-05-12T09:43:03.859Z,4.18
2023-05-12T09:45:34.742Z,3.90
2023-05-12T09:48:08.556Z,3.85
2023-05-12T09:50:47.385Z,3.78
2023-05-12T09:53:15.534Z,2.95
2023-05-12T09:55:44.006Z,3.38
2023-05-12T09:58:13.857Z,3.33
2023-05-12T10:01:06.009Z,2.80
2023-05-12T10:03:30.116Z,2.78
2023-05-12T10:06:00.630Z,2.47
2023-05-12T10:08:32.201Z,2.50
2023-05-12T10:11:00.682Z,2.90
2023-05-12T10:13:28.903Z,2.53
2023-05-12T10:15:57.594Z,2.53
2023-05-12T10:18:24.983Z,2.13
2023-05-12T10:20:52.845Z,2.33
2023-05-12T10:23:21.924Z,2.40
2023-05-12T10:25:50.368Z,2.40
2023-05-12T10:28:17.470Z,1.75
2023-05-12T10:30:46.348Z,2.22
2023-05-12T10:33:13.444Z,1.95
2023-05-12T10:35:43.710Z,2.50
2023-05-12T10:38:12.493Z,2.05
2023-05-12T10:40:52.494Z,2.03
2023-05-12T10:43:22.674Z,1.88
2023-05-12T10:46:08.061Z,2.25
2023-05-12T10:48:35.132Z,2.38
2023-05-12T10:51:07.995Z,1.60
2023-05-12T10:53:47.741Z,1.92
2023-05-12T10:56:22.641Z,1.77
2023-05-12T10:59:22.883Z,1.90
2023-05-12T11:02:02.199Z,2.20
2023-05-12T11:04:41.589Z,3.05
2023-05-12T11:07:09.983Z,2.80
2023-05-12T11:09:43.424Z,2.92
2023-05-12T11:12:16.318Z,3.67
2023-05-12T11:14:45.124Z,3.63
2023-05-12T11:17:12.911Z,4.20
2023-05-12T11:19:44.548Z,3.72
2023-05-12T11:22:12.188Z,3.63
2023-05-12T11:24:40.680Z,3.78
2023-05-12T11:27:13.921Z,3.90
2023-05-12T11:29:42.971Z,4.05
2023-05-12T11:32:10.972Z,3.30
2023-05-12T11:34:38.413Z,2.90
2023-05-12T11:37:06.019Z,2.90
2023-05-12T11:39:33.325Z,3.30
2023-05-12T11:42:12.230Z,2.42
2023-05-12T11:44:48.190Z,3.20
2023-05-12T11:47:16.448Z,2.30
2023-05-12T11:49:48.650Z,2.20
2023-05-12T11:52:16.561Z,2.30
2023-05-12T11:54:48.740Z,2.15
2023-05-12T11:57:25.712Z,2.67
2023-05-12T11:59:59.232Z,2.20
2023-05-12T12:02:26.642Z,2.53
2023-05-12T12:04:53.720Z,2.30
2023-05-12T12:07:29.491Z,2.45
2023-05-12T12:09:56.585Z,2.58
2023-05-12T12:12:23.918Z,2.65
2023-05-12T12:14:50.934Z,2.47
2023-05-12T12:17:19.268Z,2.55
2023-05-12T12:19:46.227Z,2.53
2023-05-12T12:22:13.310Z,2.53
2023-05-12T12:24:40.313Z,2.55
2023-05-12T12:27:07.362Z,2.40
2023-05-12T12:29:34.417Z,2.22
2023-05-12T12:32:01.467Z,2.70
2023-05-12T12:34:29.806Z,2.33
2023-05-12T12:36:56.761Z,2.45
2023-05-12T12:39:23.658Z,3.00
2023-05-12T12:41:50.668Z,4.43
2023-05-12T12:44:17.675Z,5.40
2023-05-12T12:46:44.775Z,5.75
2023-05-12T12:49:11.817Z,5.57
2023-05-12T12:51:46.156Z,5.95
2023-05-12T12:54:14.262Z,6.50
2023-05-12T12:56:41.226Z,6.78
2023-05-12T12:59:08.178Z,6.82
2023-05-12T13:01:38.132Z,6.43
2023-05-12T13:04:05.398Z,7.60
2023-05-12T13:06:32.303Z,7.82
2023-05-12T13:09:00.632Z,7.10
2023-05-12T13:11:27.816Z,7.57
2023-05-12T13:13:54.911Z,8.00
2023-05-12T13:16:21.960Z,8.18
2023-05-12T13:18:49.096Z,7.18
2023-05-12T13:21:16.106Z,6.50
2023-05-12T13:23:43.050Z,6.38
2023-05-12T13:26:11.660Z,6.82
2023-05-12T13:28:38.686Z,7.25
2023-05-12T13:31:06.276Z,6.43
2023-05-12T13:33:33.558Z,6.78
2023-05-12T13:36:00.493Z,6.70
2023-05-12T13:38:27.530Z,6.05
2023-05-12T13:40:54.579Z,5.63
2023-05-12T13:43:22.987Z,5.40
2023-05-12T13:45:50.019Z,4.78
2023-05-12T13:48:17.077Z,4.80
2023-05-12T13:50:44.154Z,4.95
2023-05-12T13:53:11.286Z,4.82
2023-05-12T13:55:40.666Z,4.88
2023-05-12T13:58:08.013Z,4.57
2023-05-12T14:00:36.526Z,5.18
2023-05-12T14:03:03.580Z,5.57
2023-05-12T14:05:30.718Z,5.88
2023-05-12T14:07:58.007Z,5.47
2023-05-12T14:10:25.069Z,5.88
2023-05-12T14:12:52.018Z,6.10
2023-05-12T14:15:32.396Z,6.38
2023-05-12T14:18:01.223Z,7.85
2023-05-12T14:20:28.260Z,6.05
2023-05-12T14:22:55.288Z,4.97
2023-05-12T14:25:22.928Z,4.97
2023-05-12T14:27:50.343Z,5.60
2023-05-12T14:30:17.447Z,5.60
2023-05-12T14:32:44.420Z,5.78
2023-05-12T14:35:12.778Z,5.15
2023-05-12T14:37:40.059Z,4.47
2023-05-12T14:40:08.466Z,4.10
2023-05-12T14:42:35.412Z,3.85
2023-05-12T14:45:02.426Z,3.45
2023-05-12T14:47:29.475Z,3.65
2023-05-12T14:49:56.557Z,3.05
2023-05-12T14:52:25.125Z,2.70
2023-05-12T14:54:52.224Z,2.97
2023-05-12T14:57:19.307Z,2.15
2023-05-12T14:59:46.320Z,2.22
2023-05-12T15:02:13.690Z,2.17
2023-05-12T15:04:40.948Z,2.20
2023-05-12T15:07:07.958Z,1.90
2023-05-12T15:09:36.475Z,1.77
2023-05-12T15:12:03.397Z,1.83
2023-05-12T15:14:30.339Z,1.58
2023-05-12T15:16:57.321Z,1.50
2023-05-12T15:19:24.358Z,1.40
2023-05-12T15:21:51.295Z,1.65
2023-05-12T15:24:18.277Z,1.17
2023-05-12T15:26:46.730Z,1.40
2023-05-12T15:29:13.683Z,1.52
2023-05-12T15:31:40.770Z,1.13
2023-05-12T15:34:08.000Z,1.50
2023-05-12T15:36:35.077Z,1.30
2023-05-12T15:39:02.005Z,1.58
2023-05-12T15:41:29.150Z,1.33
2023-05-12T15:43:57.690Z,1.35
2023-05-12T15:46:24.661Z,1.60
2023-05-12T15:48:52.053Z,1.60
2023-05-12T15:51:19.362Z,1.40
2023-05-12T15:53:46.374Z,1.67
2023-05-12T15:56:13.389Z,1.70
2023-05-12T15:58:40.601Z,1.73
2023-05-12T16:01:08.992Z,1.70
2023-05-12T16:03:36.212Z,1.67
2023-05-12T16:06:03.287Z,1.83
2023-05-12T16:08:30.327Z,1.90
2023-05-12T16:10:57.269Z,2.00
2023-05-12T16:13:24.364Z,2.00
2023-05-12T16:15:54.155Z,2.10
2023-05-12T16:18:22.607Z,2.10
2023-05-12T16:20:52.037Z,2.17
2023-05-12T16:23:19.021Z,2.15
2023-05-12T16:25:46.006Z,2.28
2023-05-12T16:28:13.142Z,2.25
2023-05-12T16:30:40.112Z,2.88
2023-05-12T16:33:07.178Z,2.72
2023-05-12T16:35:35.872Z,2.20
2023-05-12T16:38:02.964Z,2.83
2023-05-12T16:40:30.024Z,2.88
2023-05-12T16:42:57.020Z,2.88
2023-05-12T16:45:24.205Z,2.75
2023-05-12T16:47:51.484Z,2.95
2023-05-12T16:50:18.937Z,2.85
2023-05-12T16:52:47.654Z,3.50
2023-05-12T16:55:14.738Z,3.08
2023-05-12T16:57:43.339Z,3.80
2023-05-12T17:00:12.030Z,3.60
2023-05-12T17:02:39.190Z,4.00
2023-05-12T17:05:07.110Z,3.58
2023-05-12T17:07:34.359Z,4.03
2023-05-12T17:10:02.794Z,3.83
2023-05-12T17:12:29.801Z,7.75
2023-05-12T17:15:06.946Z,3.97
2023-05-12T17:17:35.036Z,4.35
2023-05-12T17:20:02.244Z,4.80
2023-05-12T17:22:29.458Z,4.30
2023-05-12T17:24:56.484Z,4.63
2023-05-12T17:27:24.828Z,4.28
2023-05-12T17:29:51.953Z,4.70
2023-05-12T17:32:18.932Z,4.93
2023-05-12T17:34:49.353Z,4.28
2023-05-12T17:37:16.435Z,4.65
2023-05-12T17:39:43.540Z,4.68
2023-05-12T17:42:10.569Z,4.60
2023-05-12T17:44:38.976Z,5.07
2023-05-12T17:47:06.589Z,5.20
2023-05-12T17:49:33.892Z,5.00
2023-05-12T17:52:00.862Z,5.40
2023-05-12T17:54:27.823Z,5.25
2023-05-12T17:56:54.765Z,5.43
2023-05-12T17:59:21.810Z,5.68
2023-05-12T18:01:50.133Z,6.10
2023-05-12T18:04:17.136Z,6.85
2023-05-12T18:06:44.149Z,6.05
2023-05-12T18:09:11.106Z,5.68
2023-05-12T18:11:38.103Z,5.93
2023-05-12T18:14:05.025Z,6.07
2023-05-12T18:16:32.481Z,5.80
2023-05-12T18:19:01.046Z,5.72
2023-05-12T18:21:28.051Z,5.75
2023-05-12T18:23:55.408Z,5.28
2023-05-12T18:26:22.561Z,5.72
2023-05-12T18:28:49.527Z,5.35
2023-05-12T18:31:16.713Z,6.00
2023-05-12T18:33:46.600Z,5.82
2023-05-12T18:36:15.281Z,6.75
2023-05-12T18:38:42.470Z,6.70
2023-05-12T18:41:09.740Z,6.88
2023-05-12T18:43:36.898Z,7.25
2023-05-12T18:46:04.424Z,7.90
2023-05-12T18:48:31.567Z,7.00
2023-05-12T18:50:58.968Z,7.07
2023-05-12T18:53:27.582Z,6.68
2023-05-12T18:55:54.536Z,8.13
2023-05-12T18:58:21.475Z,7.90
2023-05-12T19:00:48.525Z,7.95
2023-05-12T19:03:15.471Z,7.97
2023-05-12T19:05:42.469Z,7.70
2023-05-12T19:08:09.476Z,7.80
2023-05-12T19:10:39.664Z,6.68
2023-05-12T19:13:07.121Z,7.20
2023-05-12T19:15:34.198Z,7.80
2023-05-12T19:18:01.252Z,7.45
2023-05-12T19:20:28.349Z,7.35
2023-05-12T19:22:55.401Z,7.97
2023-05-12T19:25:22.785Z,7.63
2023-05-12T19:27:51.706Z,8.10
2023-05-12T19:30:18.692Z,9.38
2023-05-12T19:32:46.005Z,9.20
2023-05-12T19:35:14.715Z,8.80
2023-05-12T19:37:42.267Z,9.70
2023-05-12T19:40:09.873Z,9.48
2023-05-12T19:42:36.897Z,10.35
2023-05-12T19:45:06.612Z,10.00
2023-05-12T19:47:33.809Z,9.70
2023-05-12T19:50:01.042Z,9.80
2023-05-12T19:52:28.074Z,10.18
2023-05-12T19:54:55.125Z,9.60
2023-05-12T19:57:22.191Z,10.15
2023-05-12T19:59:49.643Z,10.25
2023-05-12T20:02:18.252Z,10.45
2023-05-12T20:04:45.529Z,9.70
2023-05-12T20:07:12.487Z,9.70
2023-05-12T20:09:39.493Z,9.77
2023-05-12T20:12:07.733Z,10.20
2023-05-12T20:14:35.090Z,10.52
2023-05-12T20:17:02.272Z,10.18
2023-05-12T20:19:30.743Z,10.32
2023-05-12T20:21:57.831Z,10.25
2023-05-12T20:24:24.990Z,10.38
2023-05-12T20:26:52.029Z,10.73
2023-05-12T20:29:19.027Z,10.60
2023-05-12T20:31:46.159Z,9.70
2023-05-12T20:34:13.132Z,11.05
2023-05-12T20:36:41.518Z,10.65
2023-05-12T20:39:08.464Z,10.50
2023-05-12T20:41:35.710Z,11.15
2023-05-12T20:44:03.071Z,11.32
2023-05-12T20:46:30.176Z,11.25
2023-05-12T20:48:57.251Z,11.30
2023-05-12T20:51:24.507Z,10.75
2023-05-12T20:53:53.343Z,11.25
2023-05-12T20:56:20.908Z,11.13
2023-05-12T20:58:47.957Z,11.38
2023-05-12T21:01:14.989Z,10.73
2023-05-12T21:03:42.187Z,12.05
2023-05-12T21:06:09.897Z,12.52
2023-05-12T21:08:36.859Z,12.00
2023-05-12T21:11:13.382Z,13.20
2023-05-12T21:13:40.301Z,13.43
2023-05-12T21:16:07.391Z,14.80
2023-05-12T21:18:34.457Z,14.20
2023-05-12T21:21:01.425Z,13.93
2023-05-12T21:23:28.835Z,12.95
2023-05-12T21:25:55.832Z,13.02
2023-05-12T21:28:24.327Z,13.07
2023-05-12T21:30:51.350Z,13.32
2023-05-12T21:33:18.358Z,12.52
2023-05-12T21:35:45.422Z,12.90
2023-05-12T21:38:12.654Z,11.85
2023-05-12T21:40:39.594Z,12.18
2023-05-12T21:43:06.709Z,11.82
2023-05-12T21:45:35.038Z,11.23
2023-05-12T21:48:02.079Z,11.45
2023-05-12T21:50:29.193Z,11.15
2023-05-12T21:52:56.137Z,11.15
2023-05-12T21:55:23.294Z,10.55
2023-05-12T21:57:50.254Z,11.07
2023-05-12T22:00:17.559Z,10.43
2023-05-12T22:02:46.754Z,12.00
2023-05-12T22:05:13.961Z,11.52
2023-05-12T22:07:40.974Z,11.45
2023-05-12T22:10:08.544Z,11.43
2023-05-12T22:12:35.502Z,11.02
2023-05-12T22:15:02.701Z,11.20
2023-05-12T22:17:29.680Z,10.80
2023-05-12T22:19:58.004Z,10.30
2023-05-12T22:22:25.141Z,9.60
2023-05-12T22:24:52.120Z,10.30
2023-05-12T22:27:19.117Z,9.95
2023-05-12T22:29:46.228Z,9.38
2023-05-12T22:32:13.308Z,9.90
2023-05-12T22:34:40.499Z,10.18
2023-05-12T22:37:08.947Z,11.63
2023-05-12T22:39:35.845Z,14.35
2023-05-12T22:42:02.891Z,14.10
2023-05-12T22:44:29.938Z,12.98
2023-05-12T22:46:57.195Z,11.45
2023-05-12T22:49:26.350Z,11.10
2023-05-12T22:51:53.395Z,9.90
2023-05-12T22:54:21.757Z,8.43
2023-05-12T22:56:48.826Z,8.15
2023-05-12T22:59:15.953Z,8.20
2023-05-12T23:01:42.913Z,8.20
2023-05-12T23:04:09.920Z,8.35
2023-05-12T23:06:36.942Z,7.85
2023-05-12T23:09:04.106Z,8.13
2023-05-12T23:11:32.539Z,8.23
2023-05-12T23:13:59.519Z,8.63
2023-05-12T23:16:26.578Z,8.93
2023-05-12T23:18:53.613Z,8.25
2023-05-12T23:21:20.589Z,8.43
2023-05-12T23:23:47.565Z,8.98
2023-05-12T23:26:14.464Z,9.45
2023-05-12T23:28:42.795Z,11.27
2023-05-12T23:31:09.743Z,11.95
2023-05-12T23:33:36.830Z,11.00
2023-05-12T23:36:04.602Z,12.02
2023-05-12T23:38:31.589Z,12.40
2023-05-12T23:40:58.532Z,13.48
2023-05-12T23:43:25.517Z,11.88
2023-05-12T23:45:54.339Z,11.90
2023-05-12T23:48:21.421Z,11.05
2023-05-12T23:50:48.429Z,11.15
2023-05-12T23:53:15.375Z,10.77
2023-05-12T23:55:42.368Z,11.05
2023-05-12T23:58:09.361Z,10.27
